sensor_id;sensor_type;location;lat;lon;timestamp;pressure;altitude;pressure_sealevel;temperature;humidity
38939;BME280;24211;49.980;19.776;2023-01-28T00:01:30;99799.59;;;0.68;100.00
38939;BME280;24211;49.980;19.776;2023-01-28T00:03:58;99811.25;;;0.65;100.00
38939;BME280;24211;49.980;19.776;2023-01-28T00:06:25;99804.03;;;0.67;100.00
38939;BME280;24211;49.980;19.776;2023-01-28T00:08:52;99802.59;;;0.55;100.00
38939;BME280;24211;49.980;19.776;2023-01-28T00:11:22;99804.75;;;0.42;100.00
38939;BME280;24211;49.980;19.776;2023-01-28T00:13:52;99802.97;;;0.60;100.00
38939;BME280;24211;49.980;19.776;2023-01-28T00:16:20;99804.47;;;0.80;100.00
38939;BME280;24211;49.980;19.776;2023-01-28T00:18:53;99801.19;;;0.78;100.00
38939;BME280;24211;49.980;19.776;2023-01-28T00:21:20;99800.34;;;0.95;100.00
38939;BME280;24211;49.980;19.776;2023-01-28T00:24:13;99801.84;;;0.80;100.00
38939;BME280;24211;49.980;19.776;2023-01-28T00:26:40;99807.03;;;0.37;100.00
38939;BME280;24211;49.980;19.776;2023-01-28T00:29:08;99806.41;;;0.43;100.00
38939;BME280;24211;49.980;19.776;2023-01-28T00:31:35;99809.91;;;0.61;100.00
38939;BME280;24211;49.980;19.776;2023-01-28T00:34:03;99809.94;;;0.69;100.00
38939;BME280;24211;49.980;19.776;2023-01-28T00:36:31;99811.25;;;0.65;100.00
38939;BME280;24211;49.980;19.776;2023-01-28T00:38:59;99810.19;;;0.58;100.00
38939;BME280;24211;49.980;19.776;2023-01-28T00:41:29;99807.72;;;0.56;100.00
38939;BME280;24211;49.980;19.776;2023-01-28T00:43:58;99812.28;;;0.72;100.00
38939;BME280;24211;49.980;19.776;2023-01-28T00:46:25;99811.16;;;0.75;100.00
38939;BME280;24211;49.980;19.776;2023-01-28T00:48:53;99808.31;;;0.86;100.00
38939;BME280;24211;49.980;19.776;2023-01-28T00:51:21;99807.13;;;0.98;100.00
38939;BME280;24211;49.980;19.776;2023-01-28T00:53:48;99808.66;;;1.08;100.00
38939;BME280;24211;49.980;19.776;2023-01-28T00:56:17;99808.66;;;1.08;100.00
38939;BME280;24211;49.980;19.776;2023-01-28T00:58:45;99808.66;;;1.08;100.00
38939;BME280;24211;49.980;19.776;2023-01-28T01:01:18;99810.03;;;1.12;100.00
38939;BME280;24211;49.980;19.776;2023-01-28T01:03:47;99803.09;;;1.11;100.00
38939;BME280;24211;49.980;19.776;2023-01-28T01:06:21;99804.31;;;0.99;100.00
38939;BME280;24211;49.980;19.776;2023-01-28T01:08:49;99810.50;;;0.90;100.00
38939;BME280;24211;49.980;19.776;2023-01-28T01:11:17;99813.13;;;0.90;100.00
38939;BME280;24211;49.980;19.776;2023-01-28T01:13:54;99814.84;;;0.99;100.00
38939;BME280;24211;49.980;19.776;2023-01-28T01:16:27;99818.84;;;0.86;100.00
38939;BME280;24211;49.980;19.776;2023-01-28T01:18:55;99814.91;;;0.72;100.00
38939;BME280;24211;49.980;19.776;2023-01-28T01:21:26;99822.31;;;0.69;100.00
38939;BME280;24211;49.980;19.776;2023-01-28T01:23:54;99816.78;;;0.62;100.00
38939;BME280;24211;49.980;19.776;2023-01-28T01:26:22;99824.78;;;0.70;100.00
38939;BME280;24211;49.980;19.776;2023-01-28T01:28:51;99824.13;;;0.41;100.00
38939;BME280;24211;49.980;19.776;2023-01-28T01:31:20;99820.72;;;0.58;100.00
38939;BME280;24211;49.980;19.776;2023-01-28T01:33:50;99820.09;;;0.64;100.00
38939;BME280;24211;49.980;19.776;2023-01-28T01:36:18;99822.56;;;0.48;100.00
38939;BME280;24211;49.980;19.776;2023-01-28T01:38:52;99825.97;;;0.58;100.00
38939;BME280;24211;49.980;19.776;2023-01-28T01:41:30;99830.63;;;0.64;100.00
38939;BME280;24211;49.980;19.776;2023-01-28T01:44:04;99827.31;;;0.62;100.00
38939;BME280;24211;49.980;19.776;2023-01-28T01:46:48;99832.22;;;0.75;100.00
38939;BME280;24211;49.980;19.776;2023-01-28T01:49:27;99828.69;;;0.66;100.00
38939;BME280;24211;49.980;19.776;2023-01-28T01:52:10;99837.09;;;0.70;100.00
38939;BME280;24211;49.980;19.776;2023-01-28T01:54:43;99841.59;;;0.77;100.00
38939;BME280;24211;49.980;19.776;2023-01-28T01:57:16;99838.69;;;0.80;100.00
38939;BME280;24211;49.980;19.776;2023-01-28T01:59:46;99835.06;;;0.81;100.00
38939;BME280;24211;49.980;19.776;2023-01-28T02:02:13;99829.34;;;0.68;100.00
38939;BME280;24211;49.980;19.776;2023-01-28T02:04:43;99836.50;;;0.76;100.00
38939;BME280;24211;49.980;19.776;2023-01-28T02:07:16;99833.81;;;0.85;100.00
38939;BME280;24211;49.980;19.776;2023-01-28T02:09:45;99836.28;;;0.87;100.00
38939;BME280;24211;49.980;19.776;2023-01-28T02:12:21;99834.56;;;0.95;100.00
38939;BME280;24211;49.980;19.776;2023-01-28T02:14:59;99837.78;;;1.07;100.00
38939;BME280;24211;49.980;19.776;2023-01-28T02:17:28;99844.91;;;1.14;100.00
38939;BME280;24211;49.980;19.776;2023-01-28T02:20:08;99841.63;;;1.12;100.00
38939;BME280;24211;49.980;19.776;2023-01-28T02:28:51;99845.66;;;0.89;100.00
38939;BME280;24211;49.980;19.776;2023-01-28T02:31:47;99851.22;;;0.86;100.00
38939;BME280;24211;49.980;19.776;2023-01-28T02:34:42;99842.44;;;0.95;100.00
38939;BME280;24211;49.980;19.776;2023-01-28T02:37:15;99842.81;;;1.00;100.00
38939;BME280;24211;49.980;19.776;2023-01-28T02:39:50;99837.56;;;1.00;100.00
38939;BME280;24211;49.980;19.776;2023-01-28T02:42:24;99837.03;;;0.97;100.00
38939;BME280;24211;49.980;19.776;2023-01-28T02:44:52;99834.84;;;0.92;100.00
38939;BME280;24211;49.980;19.776;2023-01-28T02:47:21;99838.16;;;0.94;100.00
38939;BME280;24211;49.980;19.776;2023-01-28T02:50:18;99840.25;;;0.73;100.00
38939;BME280;24211;49.980;19.776;2023-01-28T02:53:16;99838.38;;;0.65;100.00
38939;BME280;24211;49.980;19.776;2023-01-28T02:56:46;99847.69;;;0.78;100.00
38939;BME280;24211;49.980;19.776;2023-01-28T02:59:27;99847.69;;;0.78;100.00
38939;BME280;24211;49.980;19.776;2023-01-28T03:05:36;99844.16;;;0.69;100.00
38939;BME280;24211;49.980;19.776;2023-01-28T03:08:06;99841.59;;;0.59;100.00
38939;BME280;24211;49.980;19.776;2023-01-28T03:10:56;99851.91;;;0.71;100.00
38939;BME280;24211;49.980;19.776;2023-01-28T03:13:44;99846.28;;;0.83;100.00
38939;BME280;24211;49.980;19.776;2023-01-28T03:16:33;99843.94;;;0.80;100.00
38939;BME280;24211;49.980;19.776;2023-01-28T03:19:21;99836.34;;;0.77;100.00
38939;BME280;24211;49.980;19.776;2023-01-28T03:22:07;99841.75;;;0.58;100.00
38939;BME280;24211;49.980;19.776;2023-01-28T03:24:53;99833.88;;;0.76;100.00
38939;BME280;24211;49.980;19.776;2023-01-28T03:27:54;99843.50;;;0.85;100.00
38939;BME280;24211;49.980;19.776;2023-01-28T03:30:59;99843.47;;;0.67;100.00
38939;BME280;24211;49.980;19.776;2023-01-28T03:33:53;99837.06;;;0.52;100.00
38939;BME280;24211;49.980;19.776;2023-01-28T03:36:39;99840.75;;;0.41;100.00
38939;BME280;24211;49.980;19.776;2023-01-28T03:39:30;99845.94;;;0.51;100.00
38939;BME280;24211;49.980;19.776;2023-01-28T03:42:05;99835.19;;;0.62;100.00
38939;BME280;24211;49.980;19.776;2023-01-28T03:44:35;99838.88;;;0.69;100.00
38939;BME280;24211;49.980;19.776;2023-01-28T03:47:29;99840.84;;;0.67;100.00
38939;BME280;24211;49.980;19.776;2023-01-28T03:49:57;99848.97;;;0.56;100.00
38939;BME280;24211;49.980;19.776;2023-01-28T03:52:33;99850.22;;;0.52;100.00
38939;BME280;24211;49.980;19.776;2023-01-28T03:55:30;99847.00;;;0.58;100.00
38939;BME280;24211;49.980;19.776;2023-01-28T03:57:57;99851.59;;;0.29;100.00
38939;BME280;24211;49.980;19.776;2023-01-28T04:00:25;99851.09;;;0.16;100.00
38939;BME280;24211;49.980;19.776;2023-01-28T04:02:53;99854.91;;;0.31;100.00
38939;BME280;24211;49.980;19.776;2023-01-28T04:05:21;99857.75;;;0.20;100.00
38939;BME280;24211;49.980;19.776;2023-01-28T04:07:49;99855.19;;;0.28;100.00
38939;BME280;24211;49.980;19.776;2023-01-28T04:10:39;99851.56;;;0.38;100.00
38939;BME280;24211;49.980;19.776;2023-01-28T04:13:18;99856.22;;;0.44;100.00
38939;BME280;24211;49.980;19.776;2023-01-28T04:15:47;99852.56;;;0.55;100.00
38939;BME280;24211;49.980;19.776;2023-01-28T04:18:15;99851.78;;;0.45;100.00
38939;BME280;24211;49.980;19.776;2023-01-28T04:20:42;99863.41;;;0.42;100.00
38939;BME280;24211;49.980;19.776;2023-01-28T04:23:09;99865.13;;;0.34;100.00
38939;BME280;24211;49.980;19.776;2023-01-28T04:25:37;99856.91;;;0.46;100.00
38939;BME280;24211;49.980;19.776;2023-01-28T04:28:07;99863.56;;;0.68;100.00
38939;BME280;24211;49.980;19.776;2023-01-28T04:30:35;99859.06;;;0.78;100.00
38939;BME280;24211;49.980;19.776;2023-01-28T04:33:25;99860.25;;;0.84;100.00
38939;BME280;24211;49.980;19.776;2023-01-28T04:35:52;99861.31;;;0.73;100.00
38939;BME280;24211;49.980;19.776;2023-01-28T04:38:24;99871.22;;;0.79;100.00
38939;BME280;24211;49.980;19.776;2023-01-28T04:41:14;99860.25;;;0.84;100.00
38939;BME280;24211;49.980;19.776;2023-01-28T04:43:41;99866.03;;;0.87;100.00
38939;BME280;24211;49.980;19.776;2023-01-28T04:46:27;99860.94;;;0.86;100.00
38939;BME280;24211;49.980;19.776;2023-01-28T04:49:01;99872.06;;;0.80;100.00
38939;BME280;24211;49.980;19.776;2023-01-28T04:51:41;99869.81;;;0.85;100.00
38939;BME280;24211;49.980;19.776;2023-01-28T04:54:27;99869.88;;;0.75;100.00
38939;BME280;24211;49.980;19.776;2023-01-28T04:56:58;99879.75;;;0.46;100.00
38939;BME280;24211;49.980;19.776;2023-01-28T04:59:26;99877.97;;;0.64;100.00
38939;BME280;24211;49.980;19.776;2023-01-28T05:01:55;99875.13;;;0.75;100.00
38939;BME280;24211;49.980;19.776;2023-01-28T05:04:22;99877.09;;;0.73;100.00
38939;BME280;24211;49.980;19.776;2023-01-28T05:06:51;99879.47;;;0.49;100.00
38939;BME280;24211;49.980;19.776;2023-01-28T05:09:23;99872.19;;;0.60;100.00
38939;BME280;24211;49.980;19.776;2023-01-28T05:11:51;99880.69;;;0.72;100.00
38939;BME280;24211;49.980;19.776;2023-01-28T05:14:18;99877.22;;;0.54;100.00
38939;BME280;24211;49.980;19.776;2023-01-28T05:16:56;99884.00;;;0.74;100.00
38939;BME280;24211;49.980;19.776;2023-01-28T05:19:23;99880.50;;;0.83;100.00
38939;BME280;24211;49.980;19.776;2023-01-28T05:21:50;99891.22;;;0.72;100.00
38939;BME280;24211;49.980;19.776;2023-01-28T05:24:27;99898.63;;;0.59;100.00
38939;BME280;24211;49.980;19.776;2023-01-28T05:26:54;99893.75;;;0.64;100.00
38939;BME280;24211;49.980;19.776;2023-01-28T05:29:21;99893.16;;;0.70;100.00
38939;BME280;24211;49.980;19.776;2023-01-28T05:31:49;99892.09;;;0.63;100.00
38939;BME280;24211;49.980;19.776;2023-01-28T05:34:16;99893.84;;;0.45;100.00
38939;BME280;24211;49.980;19.776;2023-01-28T05:36:44;99898.91;;;0.29;100.00
38939;BME280;24211;49.980;19.776;2023-01-28T05:39:25;99898.00;;;0.47;100.00
38939;BME280;24211;49.980;19.776;2023-01-28T05:41:52;99905.63;;;0.68;100.00
38939;BME280;24211;49.980;19.776;2023-01-28T05:44:19;99901.72;;;0.72;100.00
38939;BME280;24211;49.980;19.776;2023-01-28T05:46:56;99896.47;;;0.72;100.00
38939;BME280;24211;49.980;19.776;2023-01-28T05:49:44;99904.84;;;0.85;100.00
38939;BME280;24211;49.980;19.776;2023-01-28T05:52:30;99899.97;;;0.90;100.00
38939;BME280;24211;49.980;19.776;2023-01-28T05:54:58;99903.25;;;0.92;100.00
38939;BME280;24211;49.980;19.776;2023-01-28T05:57:27;99909.19;;;0.94;100.00
38939;BME280;24211;49.980;19.776;2023-01-28T05:59:54;99916.59;;;0.91;100.00
38939;BME280;24211;49.980;19.776;2023-01-28T06:02:22;99914.50;;;0.67;100.00
38939;BME280;24211;49.980;19.776;2023-01-28T06:04:53;99917.78;;;0.79;100.00
38939;BME280;24211;49.980;19.776;2023-01-28T06:07:20;99913.25;;;0.44;100.00
38939;BME280;24211;49.980;19.776;2023-01-28T06:09:47;99921.91;;;0.27;100.00
38939;BME280;24211;49.980;19.776;2023-01-28T06:12:19;99919.34;;;0.35;100.00
38939;BME280;24211;49.980;19.776;2023-01-28T06:15:05;99933.69;;;0.50;100.00
38939;BME280;24211;49.980;19.776;2023-01-28T06:17:52;99929.69;;;0.46;100.00
38939;BME280;24211;49.980;19.776;2023-01-28T06:20:26;99936.94;;;0.61;100.00
38939;BME280;24211;49.980;19.776;2023-01-28T06:22:56;99951.03;;;0.70;100.00
38939;BME280;24211;49.980;19.776;2023-01-28T06:25:23;99950.25;;;0.60;100.00
38939;BME280;24211;49.980;19.776;2023-01-28T06:27:52;99946.34;;;0.64;100.00
38939;BME280;24211;49.980;19.776;2023-01-28T06:30:19;99951.03;;;0.70;100.00
38939;BME280;24211;49.980;19.776;2023-01-28T06:32:47;99953.56;;;0.62;100.00
38939;BME280;24211;49.980;19.776;2023-01-28T06:35:19;99957.22;;;0.51;100.00
38939;BME280;24211;49.980;19.776;2023-01-28T06:37:46;99959.31;;;0.48;100.00
38939;BME280;24211;49.980;19.776;2023-01-28T06:40:13;99960.78;;;0.60;100.00
38939;BME280;24211;49.980;19.776;2023-01-28T06:42:41;99956.50;;;0.49;100.00
38939;BME280;24211;49.980;19.776;2023-01-28T06:45:08;99960.47;;;0.63;100.00
38939;BME280;24211;49.980;19.776;2023-01-28T06:47:38;99968.16;;;0.74;100.00
38939;BME280;24211;49.980;19.776;2023-01-28T06:50:06;99969.84;;;0.75;100.00
38939;BME280;24211;49.980;19.776;2023-01-28T06:52:33;99970.91;;;0.82;100.00
38939;BME280;24211;49.980;19.776;2023-01-28T06:55:01;99977.22;;;0.89;100.00
38939;BME280;24211;49.980;19.776;2023-01-28T06:57:29;99976.16;;;0.82;100.00
38939;BME280;24211;49.980;19.776;2023-01-28T06:59:56;99970.09;;;0.45;100.00
38939;BME280;24211;49.980;19.776;2023-01-28T07:02:23;99978.16;;;0.43;100.00
38939;BME280;24211;49.980;19.776;2023-01-28T07:04:53;99977.66;;;0.21;100.00
38939;BME280;24211;49.980;19.776;2023-01-28T07:07:20;99992.78;;;-0.01;100.00
38939;BME280;24211;49.980;19.776;2023-01-28T07:09:47;99987.63;;;0.27;100.00
38939;BME280;24211;49.980;19.776;2023-01-28T07:12:14;99986.06;;;0.34;100.00
38939;BME280;24211;49.980;19.776;2023-01-28T07:14:42;99985.81;;;0.18;100.00
38939;BME280;24211;49.980;19.776;2023-01-28T07:17:09;99990.25;;;0.08;100.00
38939;BME280;24211;49.980;19.776;2023-01-28T07:19:36;99987.25;;;0.12;100.00
38939;BME280;24211;49.980;19.776;2023-01-28T07:22:04;99992.69;;;0.38;100.00
38939;BME280;24211;49.980;19.776;2023-01-28T07:24:31;99996.00;;;0.40;100.00
38939;BME280;24211;49.980;19.776;2023-01-28T07:26:59;99992.47;;;0.22;100.00
38939;BME280;24211;49.980;19.776;2023-01-28T07:29:27;100000.44;;;0.30;100.00
38939;BME280;24211;49.980;19.776;2023-01-28T07:31:54;100007.09;;;0.34;100.00
38939;BME280;24211;49.980;19.776;2023-01-28T07:34:21;100015.44;;;0.20;100.00
38939;BME280;24211;49.980;19.776;2023-01-28T07:36:48;100007.66;;;0.28;100.00
38939;BME280;24211;49.980;19.776;2023-01-28T07:39:15;100002.69;;;0.25;100.00
38939;BME280;24211;49.980;19.776;2023-01-28T07:41:42;100010.97;;;0.30;100.00
38939;BME280;24211;49.980;19.776;2023-01-28T07:44:29;100012.34;;;0.34;100.00
38939;BME280;24211;49.980;19.776;2023-01-28T07:46:57;100005.72;;;0.30;100.00
38939;BME280;24211;49.980;19.776;2023-01-28T07:49:24;100002.38;;;0.37;100.00
38939;BME280;24211;49.980;19.776;2023-01-28T07:51:51;100008.53;;;0.19;100.00
38939;BME280;24211;49.980;19.776;2023-01-28T07:54:19;100008.09;;;0.23;100.00
38939;BME280;24211;49.980;19.776;2023-01-28T07:56:46;100007.16;;;0.15;100.00
38939;BME280;24211;49.980;19.776;2023-01-28T07:59:14;99999.38;;;0.23;100.00
38939;BME280;24211;49.980;19.776;2023-01-28T08:01:42;100010.13;;;0.39;100.00
38939;BME280;24211;49.980;19.776;2023-01-28T08:04:09;100005.66;;;0.49;100.00
38939;BME280;24211;49.980;19.776;2023-01-28T08:06:36;100007.06;;;0.43;100.00
38939;BME280;24211;49.980;19.776;2023-01-28T08:09:05;100013.19;;;0.25;100.00
38939;BME280;24211;49.980;19.776;2023-01-28T08:11:37;100006.50;;;0.40;100.00
38939;BME280;24211;49.980;19.776;2023-01-28T08:14:05;100017.94;;;0.58;100.00
38939;BME280;24211;49.980;19.776;2023-01-28T08:16:32;100022.28;;;0.40;100.00
38939;BME280;24211;49.980;19.776;2023-01-28T08:18:59;100012.56;;;0.50;100.00
38939;BME280;24211;49.980;19.776;2023-01-28T08:21:28;100017.91;;;0.31;100.00
38939;BME280;24211;49.980;19.776;2023-01-28T08:23:55;100012.75;;;0.39;100.00
38939;BME280;24211;49.980;19.776;2023-01-28T08:26:22;100020.00;;;0.64;100.00
38939;BME280;24211;49.980;19.776;2023-01-28T08:28:49;100020.63;;;0.48;100.00
38939;BME280;24211;49.980;19.776;2023-01-28T08:31:17;100021.25;;;0.60;100.00
38939;BME280;24211;49.980;19.776;2023-01-28T08:33:45;100022.53;;;0.56;100.00
38939;BME280;24211;49.980;19.776;2023-01-28T08:36:12;100021.63;;;0.75;100.00
38939;BME280;24211;49.980;19.776;2023-01-28T08:38:39;100029.06;;;0.79;100.00
38939;BME280;24211;49.980;19.776;2023-01-28T08:41:06;100024.31;;;0.92;100.00
38939;BME280;24211;49.980;19.776;2023-01-28T08:43:33;100024.59;;;0.89;100.00
38939;BME280;24211;49.980;19.776;2023-01-28T08:46:05;100030.78;;;0.71;100.00
38939;BME280;24211;49.980;19.776;2023-01-28T08:48:33;100036.00;;;0.80;100.00
38939;BME280;24211;49.980;19.776;2023-01-28T08:51:03;100029.47;;;0.84;100.00
38939;BME280;24211;49.980;19.776;2023-01-28T08:53:30;100032.66;;;0.88;100.00
38939;BME280;24211;49.980;19.776;2023-01-28T08:55:57;100029.56;;;0.92;100.00
38939;BME280;24211;49.980;19.776;2023-01-28T08:58:24;100037.06;;;0.87;100.00
38939;BME280;24211;49.980;19.776;2023-01-28T09:00:51;100039.59;;;0.79;100.00
38939;BME280;24211;49.980;19.776;2023-01-28T09:03:19;100044.00;;;0.88;100.00
38939;BME280;24211;49.980;19.776;2023-01-28T09:05:46;100048.94;;;0.91;100.00
38939;BME280;24211;49.980;19.776;2023-01-28T09:08:15;100053.44;;;0.81;100.00
38939;BME280;24211;49.980;19.776;2023-01-28T09:10:43;100053.06;;;0.76;100.00
38939;BME280;24211;49.980;19.776;2023-01-28T09:13:14;100046.00;;;0.67;100.00
38939;BME280;24211;49.980;19.776;2023-01-28T09:15:42;100052.50;;;0.73;100.00
38939;BME280;24211;49.980;19.776;2023-01-28T09:18:09;100044.41;;;0.47;100.00
38939;BME280;24211;49.980;19.776;2023-01-28T09:20:37;100047.16;;;0.55;100.00
38939;BME280;24211;49.980;19.776;2023-01-28T09:23:06;100047.44;;;0.52;100.00
38939;BME280;24211;49.980;19.776;2023-01-28T09:25:33;100048.25;;;0.62;100.00
38939;BME280;24211;49.980;19.776;2023-01-28T09:28:02;100051.78;;;0.80;100.00
38939;BME280;24211;49.980;19.776;2023-01-28T09:30:31;100052.84;;;0.87;100.00
38939;BME280;24211;49.980;19.776;2023-01-28T09:33:02;100049.28;;;0.88;100.00
38939;BME280;24211;49.980;19.776;2023-01-28T09:35:30;100056.22;;;0.80;100.00
38939;BME280;24211;49.980;19.776;2023-01-28T09:37:57;100041.63;;;0.58;100.00
38939;BME280;24211;49.980;19.776;2023-01-28T09:40:36;100041.03;;;0.64;100.00
38939;BME280;24211;49.980;19.776;2023-01-28T09:43:48;100048.50;;;0.69;100.00
38939;BME280;24211;49.980;19.776;2023-01-28T09:46:20;100044.09;;;0.59;100.00
38939;BME280;24211;49.980;19.776;2023-01-28T09:48:50;100046.19;;;0.56;100.00
38939;BME280;24211;49.980;19.776;2023-01-28T09:51:39;100047.41;;;0.71;100.00
38939;BME280;24211;49.980;19.776;2023-01-28T09:54:47;100059.56;;;0.72;100.00
38939;BME280;24211;49.980;19.776;2023-01-28T09:57:30;100051.09;;;0.78;100.00
38939;BME280;24211;49.980;19.776;2023-01-28T10:00:11;100048.47;;;0.78;100.00
38939;BME280;24211;49.980;19.776;2023-01-28T10:17:31;100042.63;;;0.84;100.00
38939;BME280;24211;49.980;19.776;2023-01-28T10:20:19;100040.06;;;1.02;100.00
38939;BME280;24211;49.980;19.776;2023-01-28T10:22:59;100038.63;;;0.80;100.00
38939;BME280;24211;49.980;19.776;2023-01-28T10:25:32;100038.22;;;0.75;100.00
38939;BME280;24211;49.980;19.776;2023-01-28T10:28:04;100043.34;;;0.77;100.00
38939;BME280;24211;49.980;19.776;2023-01-28T10:30:41;100040.72;;;1.04;100.00
38939;BME280;24211;49.980;19.776;2023-01-28T10:33:46;100036.41;;;1.12;100.00
38939;BME280;24211;49.980;19.776;2023-01-28T10:36:14;100043.69;;;1.18;100.00
38939;BME280;24211;49.980;19.776;2023-01-28T10:38:44;100039.09;;;1.20;100.00
38939;BME280;24211;49.980;19.776;2023-01-28T10:41:20;100036.84;;;1.25;100.00
38939;BME280;24211;49.980;19.776;2023-01-28T10:43:49;100041.53;;;1.31;100.00
38939;BME280;24211;49.980;19.776;2023-01-28T10:46:27;100035.00;;;1.18;100.00
38939;BME280;24211;49.980;19.776;2023-01-28T10:49:12;100040.53;;;0.88;100.00
38939;BME280;24211;49.980;19.776;2023-01-28T10:51:42;100039.25;;;0.92;100.00
38939;BME280;24211;49.980;19.776;2023-01-28T10:54:28;100035.13;;;0.89;100.00
38939;BME280;24211;49.980;19.776;2023-01-28T10:57:03;100029.38;;;0.76;100.00
38939;BME280;24211;49.980;19.776;2023-01-28T10:59:33;100036.28;;;0.77;100.00
38939;BME280;24211;49.980;19.776;2023-01-28T11:02:19;100033.88;;;0.93;100.00
38939;BME280;24211;49.980;19.776;2023-01-28T11:07:29;100031.03;;;0.77;100.00
38939;BME280;24211;49.980;19.776;2023-01-28T11:09:56;100032.25;;;0.83;100.00
38939;BME280;24211;49.980;19.776;2023-01-28T11:12:27;100034.28;;;0.98;100.00
38939;BME280;24211;49.980;19.776;2023-01-28T11:15:01;100035.44;;;0.77;100.00
38939;BME280;24211;49.980;19.776;2023-01-28T11:17:34;100032.78;;;0.59;100.00
38939;BME280;24211;49.980;19.776;2023-01-28T11:20:18;100039.19;;;0.74;100.00
38939;BME280;24211;49.980;19.776;2023-01-28T11:22:48;100026.75;;;0.76;100.00
38939;BME280;24211;49.980;19.776;2023-01-28T11:27:55;100032.31;;;1.00;100.00
38939;BME280;24211;49.980;19.776;2023-01-28T11:30:35;100031.41;;;1.09;100.00
38939;BME280;24211;49.980;19.776;2023-01-28T11:35:36;100029.72;;;1.18;100.00
38939;BME280;24211;49.980;19.776;2023-01-28T11:38:17;100028.56;;;1.20;100.00
38939;BME280;24211;49.980;19.776;2023-01-28T11:40:54;100020.53;;;1.22;100.00
38939;BME280;24211;49.980;19.776;2023-01-28T11:43:27;100025.81;;;1.22;100.00
38939;BME280;24211;49.980;19.776;2023-01-28T11:46:38;100029.94;;;1.24;100.00
38939;BME280;24211;49.980;19.776;2023-01-28T11:52:41;100028.28;;;1.23;100.00
38939;BME280;24211;49.980;19.776;2023-01-28T11:55:44;100018.44;;;1.25;100.00
38939;BME280;24211;49.980;19.776;2023-01-28T12:01:16;100016.69;;;1.16;100.00
38939;BME280;24211;49.980;19.776;2023-01-28T12:09:54;100014.59;;;1.20;100.00
38939;BME280;24211;49.980;19.776;2023-01-28T12:20:59;100030.72;;;1.35;100.00
38939;BME280;24211;49.980;19.776;2023-01-28T12:27:03;100013.25;;;1.33;100.00
38939;BME280;24211;49.980;19.776;2023-01-28T12:29:48;100015.06;;;1.33;100.00
38939;BME280;24211;49.980;19.776;2023-01-28T12:38:23;100025.47;;;1.35;100.00
38939;BME280;24211;49.980;19.776;2023-01-28T12:40:52;100021.53;;;1.39;100.00
38939;BME280;24211;49.980;19.776;2023-01-28T12:43:40;100021.75;;;1.27;100.00
38939;BME280;24211;49.980;19.776;2023-01-28T12:46:34;100022.16;;;1.33;100.00
38939;BME280;24211;49.980;19.776;2023-01-28T12:49:18;100019.59;;;1.41;100.00
38939;BME280;24211;49.980;19.776;2023-01-28T12:52:08;100017.63;;;1.43;100.00
38939;BME280;24211;49.980;19.776;2023-01-28T12:55:26;100017.56;;;1.52;100.00
38939;BME280;24211;49.980;19.776;2023-01-28T12:58:04;100024.78;;;1.50;100.00
38939;BME280;24211;49.980;19.776;2023-01-28T13:00:39;100032.25;;;1.55;100.00
38939;BME280;24211;49.980;19.776;2023-01-28T13:04:09;100026.66;;;1.58;100.00
38939;BME280;24211;49.980;19.776;2023-01-28T13:07:05;100031.94;;;1.58;100.00
38939;BME280;24211;49.980;19.776;2023-01-28T13:09:37;100029.69;;;1.63;100.00
38939;BME280;24211;49.980;19.776;2023-01-28T13:12:11;100037.00;;;1.69;100.00
38939;BME280;24211;49.980;19.776;2023-01-28T13:14:40;100029.09;;;1.69;100.00
38939;BME280;24211;49.980;19.776;2023-01-28T13:17:26;100036.84;;;1.70;100.00
38939;BME280;24211;49.980;19.776;2023-01-28T13:19:55;100027.13;;;1.71;100.00
38939;BME280;24211;49.980;19.776;2023-01-28T13:22:33;100034.06;;;1.72;100.00
38939;BME280;24211;49.980;19.776;2023-01-28T13:25:24;100037.66;;;1.71;100.00
38939;BME280;24211;49.980;19.776;2023-01-28T13:28:03;100040.31;;;1.71;100.00
38939;BME280;24211;49.980;19.776;2023-01-28T13:30:45;100041.59;;;1.67;100.00
38939;BME280;24211;49.980;19.776;2023-01-28T13:33:30;100037.00;;;1.69;100.00
38939;BME280;24211;49.980;19.776;2023-01-28T13:36:09;100041.25;;;1.70;100.00
38939;BME280;24211;49.980;19.776;2023-01-28T13:38:44;100042.78;;;1.72;100.00
38939;BME280;24211;49.980;19.776;2023-01-28T13:41:11;100040.97;;;1.73;100.00
38939;BME280;24211;49.980;19.776;2023-01-28T13:43:41;100042.34;;;1.77;100.00
38939;BME280;24211;49.980;19.776;2023-01-28T13:46:26;100040.38;;;1.79;100.00
38939;BME280;24211;49.980;19.776;2023-01-28T13:48:56;100051.72;;;1.79;100.00
38939;BME280;24211;49.980;19.776;2023-01-28T13:51:34;100043.41;;;1.84;100.00
38939;BME280;24211;49.980;19.776;2023-01-28T13:54:14;100043.41;;;1.84;100.00
38939;BME280;24211;49.980;19.776;2023-01-28T13:59:52;100048.50;;;1.85;100.00
38939;BME280;24211;49.980;19.776;2023-01-28T14:08:45;100056.19;;;1.79;100.00
38939;BME280;24211;49.980;19.776;2023-01-28T14:11:35;100053.09;;;1.83;100.00
38939;BME280;24211;49.980;19.776;2023-01-28T14:20:20;100061.91;;;1.92;100.00
38939;BME280;24211;49.980;19.776;2023-01-28T14:22:58;100069.66;;;1.93;100.00
38939;BME280;24211;49.980;19.776;2023-01-28T14:25:57;100071.00;;;1.97;100.00
38939;BME280;24211;49.980;19.776;2023-01-28T14:31:19;100070.50;;;1.94;100.00
38939;BME280;24211;49.980;19.776;2023-01-28T14:33:51;100064.09;;;1.96;100.00
38939;BME280;24211;49.980;19.776;2023-01-28T14:36:18;100067.41;;;1.98;100.00
38939;BME280;24211;49.980;19.776;2023-01-28T14:38:46;100086.38;;;2.02;100.00
38939;BME280;24211;49.980;19.776;2023-01-28T14:41:26;100075.16;;;2.00;100.00
38939;BME280;24211;49.980;19.776;2023-01-28T14:43:55;100080.44;;;2.00;100.00